createdAt,value
2022-10-19T00:00:26.221Z,94797.47
2022-10-19T00:01:27.668Z,94794.81
2022-10-19T00:02:29.178Z,94803.16
2022-10-19T00:03:30.840Z,94797.09
2022-10-19T00:04:32.270Z,94802.72
2022-10-19T00:05:35.057Z,94799.81
2022-10-19T00:06:37.705Z,94805.34
2022-10-19T00:07:39.209Z,94802.31
2022-10-19T00:08:41.691Z,94798.53
2022-10-19T00:09:43.810Z,94798.97
2022-10-19T00:10:45.243Z,94795.34
2022-10-19T00:11:48.533Z,94793.34
2022-10-19T00:12:50.179Z,94798.72
2022-10-19T00:13:52.288Z,94795.84
2022-10-19T00:14:53.742Z,94794.09
2022-10-19T00:15:55.184Z,94798.75
2022-10-19T00:16:56.639Z,94800.47
2022-10-19T00:17:58.037Z,94794.75
2022-10-19T00:19:01.613Z,94799.91
2022-10-19T00:20:03.702Z,94797.41
2022-10-19T00:21:08.579Z,94800.34
2022-10-19T00:22:13.046Z,94805.75
2022-10-19T00:23:15.633Z,94803.31
2022-10-19T00:24:17.310Z,94798.06
2022-10-19T00:25:18.799Z,94800.66
2022-10-19T00:26:20.375Z,94798.94
2022-10-19T00:27:21.803Z,94795.72
2022-10-19T00:28:23.294Z,94797.75
2022-10-19T00:29:24.747Z,94796.44
2022-10-19T00:30:26.169Z,94790.72
2022-10-19T00:31:27.749Z,94789.41
2022-10-19T00:32:29.195Z,94800.41
2022-10-19T00:33:30.625Z,94799.81
2022-10-19T00:34:32.062Z,94795.13
2022-10-19T00:35:33.500Z,94795.84
2022-10-19T00:36:39.156Z,94800.59
2022-10-19T00:37:40.576Z,94798.00
2022-10-19T00:38:42.239Z,94802.56
2022-10-19T00:39:43.773Z,94804.84
2022-10-19T00:40:45.863Z,94798.19
2022-10-19T00:41:47.994Z,94799.69
2022-10-19T00:42:54.400Z,94795.47
2022-10-19T00:43:59.413Z,94792.41
2022-10-19T00:45:11.152Z,94792.63
2022-10-19T00:46:13.388Z,94788.94
2022-10-19T00:47:17.142Z,94791.03
2022-10-19T00:48:22.528Z,94785.47
2022-10-19T00:49:26.835Z,94786.09
2022-10-19T00:50:28.308Z,94786.91
2022-10-19T00:51:31.889Z,94785.28
2022-10-19T00:52:35.111Z,94783.66
2022-10-19T00:53:37.011Z,94787.50
2022-10-19T00:54:40.783Z,94777.94
2022-10-19T00:55:43.098Z,94780.81
2022-10-19T00:56:47.504Z,94782.09
2022-10-19T00:57:49.026Z,94777.03
2022-10-19T00:58:50.497Z,94775.66
2022-10-19T00:59:52.192Z,94776.59
2022-10-19T01:00:53.809Z,94776.28
2022-10-19T01:01:55.533Z,94781.75
2022-10-19T01:02:57.959Z,94782.06
2022-10-19T01:03:59.741Z,94784.06
2022-10-19T01:05:01.774Z,94781.69
2022-10-19T01:06:03.676Z,94778.97
2022-10-19T01:07:06.696Z,94777.16
2022-10-19T01:08:11.460Z,94779.00
2022-10-19T01:09:13.087Z,94773.03
2022-10-19T01:10:14.848Z,94768.59
2022-10-19T01:11:26.807Z,94769.25
2022-10-19T01:12:54.850Z,94768.13
2022-10-19T01:14:09.979Z,94770.53
2022-10-19T01:15:20.764Z,94764.44
2022-10-19T01:16:31.944Z,94763.06
2022-10-19T01:17:45.043Z,94761.88
2022-10-19T01:18:58.089Z,94755.97
2022-10-19T01:20:50.157Z,94749.47
2022-10-19T01:22:05.318Z,94755.16
2022-10-19T01:23:34.081Z,94759.38
2022-10-19T01:24:51.861Z,94760.53
2022-10-19T01:26:02.936Z,94759.03
2022-10-19T01:27:29.004Z,94762.09
2022-10-19T01:28:44.253Z,94763.13
2022-10-19T01:30:04.532Z,94770.97
2022-10-19T01:31:16.963Z,94761.78
2022-10-19T01:32:25.096Z,94762.94
2022-10-19T01:33:35.774Z,94765.53
2022-10-19T01:34:45.023Z,94764.63
2022-10-19T01:35:55.541Z,94757.53
2022-10-19T01:37:02.449Z,94757.28
2022-10-19T01:38:21.914Z,94753.31
2022-10-19T01:39:30.435Z,94760.59
2022-10-19T01:40:40.371Z,94761.00
2022-10-19T01:41:49.267Z,94766.81
2022-10-19T01:42:58.672Z,94763.34
2022-10-19T01:44:07.770Z,94761.13
2022-10-19T01:45:15.930Z,94768.06
2022-10-19T01:46:22.862Z,94763.13
2022-10-19T01:47:28.100Z,94761.13
2022-10-19T01:48:34.526Z,94767.00
2022-10-19T01:49:41.302Z,94765.47
2022-10-19T01:50:47.594Z,94764.63
2022-10-19T01:51:53.868Z,94767.66
2022-10-19T01:52:57.153Z,94766.34
2022-10-19T01:54:04.734Z,94766.53
2022-10-19T01:55:10.342Z,94772.63
2022-10-19T01:56:12.703Z,94773.81
2022-10-19T01:57:18.674Z,94771.16
2022-10-19T01:58:26.255Z,94769.53
2022-10-19T01:59:28.803Z,94765.75
2022-10-19T02:00:35.211Z,94774.06
2022-10-19T02:01:41.292Z,94768.19
2022-10-19T02:02:45.960Z,94771.41
2022-10-19T02:03:48.678Z,94768.66
2022-10-19T02:04:51.705Z,94766.63
2022-10-19T02:05:54.451Z,94763.72
2022-10-19T02:06:56.821Z,94761.69
2022-10-19T02:08:01.110Z,94768.94
2022-10-19T02:09:02.555Z,94762.78
2022-10-19T02:10:04.643Z,94769.31
2022-10-19T02:11:06.454Z,94764.94
2022-10-19T02:12:10.828Z,94763.78
2022-10-19T02:13:15.000Z,94762.53
2022-10-19T02:14:19.097Z,94766.06
2022-10-19T02:15:23.527Z,94764.63
2022-10-19T02:16:30.164Z,94764.59
2022-10-19T02:17:35.416Z,94760.44
2022-10-19T02:18:44.663Z,94762.31
2022-10-19T02:19:46.133Z,94761.13
2022-10-19T02:20:47.986Z,94761.13
2022-10-19T02:21:51.418Z,94757.75
2022-10-19T02:22:52.880Z,94756.31
2022-10-19T02:23:54.494Z,94758.81
2022-10-19T02:24:56.048Z,94758.19
2022-10-19T02:25:58.311Z,94759.47
2022-10-19T02:27:00.552Z,94758.31
2022-10-19T02:28:04.149Z,94761.28
2022-10-19T02:29:05.953Z,94753.38
2022-10-19T02:30:08.910Z,94746.75
2022-10-19T02:31:10.697Z,94758.81
2022-10-19T02:32:13.492Z,94748.22
2022-10-19T02:33:15.616Z,94751.53
2022-10-19T02:34:17.158Z,94750.72
2022-10-19T02:35:18.852Z,94748.34
2022-10-19T02:36:20.830Z,94745.22
2022-10-19T02:37:25.529Z,94751.41
2022-10-19T02:38:27.566Z,94743.66
2022-10-19T02:39:29.314Z,94743.72
2022-10-19T02:40:33.434Z,94743.16
2022-10-19T02:41:39.295Z,94735.91
2022-10-19T02:42:47.030Z,94746.78
2022-10-19T02:43:51.428Z,94737.84
2022-10-19T02:44:59.939Z,94737.38
2022-10-19T02:46:05.567Z,94732.91
2022-10-19T02:47:12.412Z,94730.41
2022-10-19T02:48:21.661Z,94736.97
2022-10-19T02:49:23.565Z,94734.19
2022-10-19T02:50:25.409Z,94736.47
2022-10-19T02:51:31.520Z,94738.13
2022-10-19T02:52:33.002Z,94736.06
2022-10-19T02:53:34.423Z,94729.50
2022-10-19T02:54:38.879Z,94737.06
2022-10-19T02:56:47.252Z,94738.25
2022-10-19T02:57:48.723Z,94740.78
2022-10-19T02:58:50.146Z,94734.66
2022-10-19T02:59:52.492Z,94734.50
2022-10-19T03:00:54.690Z,94738.91
2022-10-19T03:01:56.145Z,94742.25
2022-10-19T03:02:57.606Z,94740.38
2022-10-19T03:04:00.397Z,94738.97
2022-10-19T03:05:01.997Z,94735.22
2022-10-19T03:06:03.636Z,94737.19
2022-10-19T03:07:05.177Z,94739.72
2022-10-19T03:08:06.586Z,94735.38
2022-10-19T03:09:08.139Z,94730.66
2022-10-19T03:10:10.034Z,94732.47
2022-10-19T03:11:11.448Z,94734.09
2022-10-19T03:12:13.924Z,94736.38
2022-10-19T03:13:15.355Z,94736.72
2022-10-19T03:14:16.821Z,94731.09
2022-10-19T03:15:19.067Z,94727.78
2022-10-19T03:16:20.489Z,94734.75
2022-10-19T03:17:22.047Z,94731.09
2022-10-19T03:18:23.547Z,94728.13
2022-10-19T03:19:26.415Z,94730.50
2022-10-19T03:20:27.844Z,94730.97
2022-10-19T03:21:29.300Z,94733.81
2022-10-19T03:22:30.721Z,94729.38
2022-10-19T03:23:32.172Z,94734.03
2022-10-19T03:24:34.003Z,94730.09
2022-10-19T03:25:35.481Z,94736.38
2022-10-19T03:26:36.947Z,94729.81
2022-10-19T03:27:38.365Z,94723.75
2022-10-19T03:28:40.139Z,94728.38
2022-10-19T03:29:41.621Z,94729.50
2022-10-19T03:30:43.073Z,94734.41
2022-10-19T03:31:44.555Z,94730.97
2022-10-19T03:32:46.090Z,94726.97
2022-10-19T03:33:47.551Z,94729.47
2022-10-19T03:34:50.287Z,94729.81
2022-10-19T03:36:11.839Z,94729.47
2022-10-19T03:37:13.243Z,94728.41
2022-10-19T03:38:14.726Z,94729.81
2022-10-19T03:39:17.151Z,94733.72
2022-10-19T03:40:18.589Z,94727.59
2022-10-19T03:41:20.606Z,94729.56
2022-10-19T03:42:22.030Z,94731.88
2022-10-19T03:43:23.455Z,94739.28
2022-10-19T03:44:25.044Z,94737.63
2022-10-19T03:45:26.498Z,94732.84
2022-10-19T03:46:28.233Z,94731.66
2022-10-19T03:47:29.830Z,94734.78
2022-10-19T03:48:31.292Z,94733.31
2022-10-19T03:49:34.643Z,94730.66
2022-10-19T03:50:39.543Z,94730.38
2022-10-19T03:51:41.130Z,94726.50
2022-10-19T03:52:42.579Z,94724.41
2022-10-19T03:53:44.569Z,94729.50
2022-10-19T03:54:46.300Z,94735.31
2022-10-19T03:55:47.837Z,94729.50
2022-10-19T03:56:49.258Z,94728.13
2022-10-19T03:57:50.684Z,94729.16
2022-10-19T03:58:54.238Z,94726.03
2022-10-19T03:59:55.677Z,94731.78
2022-10-19T04:00:57.151Z,94739.50
2022-10-19T04:01:58.588Z,94734.91
2022-10-19T04:03:00.056Z,94736.97
2022-10-19T04:04:04.341Z,94736.50
2022-10-19T04:05:07.056Z,94736.44
2022-10-19T04:06:15.759Z,94739.66
2022-10-19T04:07:19.753Z,94734.03
2022-10-19T04:08:21.207Z,94735.59
2022-10-19T04:09:23.129Z,94737.91
2022-10-19T04:10:24.791Z,94730.22
2022-10-19T04:11:28.548Z,94735.91
2022-10-19T04:12:30.052Z,94728.72
2022-10-19T04:13:33.311Z,94729.88
2022-10-19T04:14:52.388Z,94724.91
2022-10-19T04:15:56.739Z,94733.06
2022-10-19T04:16:58.210Z,94721.94
2022-10-19T04:17:59.688Z,94727.19
2022-10-19T04:19:01.340Z,94722.28
2022-10-19T04:20:03.023Z,94729.28
2022-10-19T04:21:05.701Z,94721.94
2022-10-19T04:22:08.471Z,94725.03
2022-10-19T04:23:09.963Z,94719.09
2022-10-19T04:24:13.659Z,94726.88
2022-10-19T04:25:15.221Z,94723.94
2022-10-19T04:26:17.070Z,94723.84
2022-10-19T04:27:18.537Z,94722.91
2022-10-19T04:28:20.053Z,94715.34
2022-10-19T04:29:26.481Z,94719.19
2022-10-19T04:30:31.206Z,94721.41
2022-10-19T04:31:32.788Z,94714.06
2022-10-19T04:32:34.208Z,94710.81
2022-10-19T04:33:35.747Z,94708.63
2022-10-19T04:34:39.893Z,94716.44
2022-10-19T04:35:41.705Z,94705.25
2022-10-19T04:36:43.189Z,94717.28
2022-10-19T04:37:45.987Z,94705.94
2022-10-19T04:38:47.693Z,94704.50
2022-10-19T04:39:49.167Z,94706.88
2022-10-19T04:40:50.624Z,94704.97
2022-10-19T04:41:52.058Z,94712.00
2022-10-19T04:42:53.486Z,94704.31
2022-10-19T04:43:57.287Z,94706.72
2022-10-19T04:44:58.742Z,94701.28
2022-10-19T04:46:02.960Z,94703.56
2022-10-19T04:47:04.451Z,94699.00
2022-10-19T04:48:06.188Z,94705.50
2022-10-19T04:49:07.701Z,94705.56
2022-10-19T04:50:09.712Z,94708.59
2022-10-19T04:51:11.804Z,94705.78
2022-10-19T04:52:13.249Z,94704.47
2022-10-19T04:53:16.115Z,94703.56
2022-10-19T04:54:17.586Z,94704.19
2022-10-19T04:55:19.162Z,94696.16
2022-10-19T04:56:22.583Z,94699.56
2022-10-19T04:57:24.059Z,94702.31
2022-10-19T04:58:25.828Z,94702.84
2022-10-19T04:59:27.250Z,94710.44
2022-10-19T05:00:28.663Z,94703.84
2022-10-19T05:01:30.985Z,94705.56
2022-10-19T05:02:32.642Z,94705.22
2022-10-19T05:03:34.126Z,94700.19
2022-10-19T05:04:35.589Z,94700.28
2022-10-19T05:05:37.034Z,94707.50
2022-10-19T05:06:38.487Z,94701.13
2022-10-19T05:07:39.949Z,94703.94
2022-10-19T05:08:42.790Z,94708.50
2022-10-19T05:09:44.291Z,94700.41
2022-10-19T05:10:47.708Z,94700.28
2022-10-19T05:11:49.448Z,94705.13
2022-10-19T05:12:50.886Z,94704.31
2022-10-19T05:13:52.395Z,94700.34
2022-10-19T05:14:53.816Z,94705.13
2022-10-19T05:15:56.574Z,94700.44
2022-10-19T05:16:58.109Z,94695.50
2022-10-19T05:17:59.770Z,94703.81
2022-10-19T05:19:01.253Z,94697.25
2022-10-19T05:20:02.823Z,94691.88
2022-10-19T05:21:06.174Z,94696.22
2022-10-19T05:22:08.632Z,94691.94
2022-10-19T05:23:10.055Z,94693.31
2022-10-19T05:24:13.116Z,94687.38
2022-10-19T05:25:14.768Z,94689.69
2022-10-19T05:26:18.183Z,94680.91
2022-10-19T05:27:19.666Z,94687.03
2022-10-19T05:28:21.138Z,94686.22
2022-10-19T05:29:22.683Z,94687.53
2022-10-19T05:30:24.132Z,94683.19
2022-10-19T05:31:28.297Z,94687.00
2022-10-19T05:32:29.793Z,94680.22
2022-10-19T05:33:31.221Z,94676.72
2022-10-19T05:34:32.656Z,94676.34
2022-10-19T05:35:34.089Z,94675.25
2022-10-19T05:36:38.009Z,94681.22
2022-10-19T05:37:39.427Z,94684.38
2022-10-19T05:38:41.286Z,94681.44
2022-10-19T05:39:44.050Z,94679.97
2022-10-19T05:40:48.305Z,94679.78
2022-10-19T05:41:52.916Z,94685.88
2022-10-19T05:42:54.369Z,94681.44
2022-10-19T05:43:57.258Z,94686.75
2022-10-19T05:44:58.688Z,94686.97
2022-10-19T05:46:03.789Z,94680.94
2022-10-19T05:47:05.257Z,94687.16
2022-10-19T05:48:06.873Z,94691.97
2022-10-19T05:49:09.929Z,94690.06
2022-10-19T05:50:11.384Z,94688.50
2022-10-19T05:51:15.804Z,94680.41
2022-10-19T05:52:17.237Z,94685.16
2022-10-19T05:53:18.690Z,94694.66
2022-10-19T05:54:22.668Z,94691.06
2022-10-19T05:55:27.809Z,94691.97
2022-10-19T05:56:31.578Z,94690.06
2022-10-19T05:57:33.359Z,94690.97
2022-10-19T05:58:35.905Z,94695.72
2022-10-19T05:59:37.377Z,94696.00
2022-10-19T06:00:38.804Z,94692.25
2022-10-19T06:01:40.428Z,94700.84
2022-10-19T06:02:41.943Z,94693.44
2022-10-19T06:03:43.437Z,94700.56
2022-10-19T06:04:45.037Z,94697.47
2022-10-19T06:05:46.477Z,94697.63
2022-10-19T06:06:47.919Z,94692.16
2022-10-19T06:07:49.367Z,94698.72
2022-10-19T06:08:51.843Z,94696.28
2022-10-19T06:09:53.262Z,94701.38
2022-10-19T06:11:05.099Z,94697.09
2022-10-19T06:12:06.539Z,94699.31
2022-10-19T06:13:08.005Z,94701.00
2022-10-19T06:14:12.877Z,94698.81
2022-10-19T06:15:14.442Z,94702.94
2022-10-19T06:16:17.565Z,94699.25
2022-10-19T06:17:19.006Z,94698.28
2022-10-19T06:18:20.466Z,94703.38
2022-10-19T06:19:21.900Z,94700.19
2022-10-19T06:20:23.391Z,94696.53
2022-10-19T06:21:26.744Z,94704.31
2022-10-19T06:22:28.219Z,94699.97
2022-10-19T06:23:29.886Z,94708.00
2022-10-19T06:24:31.476Z,94700.44
2022-10-19T06:25:33.129Z,94701.25
2022-10-19T06:26:35.928Z,94698.06
2022-10-19T06:27:37.702Z,94705.72
2022-10-19T06:28:41.115Z,94705.56
2022-10-19T06:29:42.551Z,94697.91
2022-10-19T06:30:44.082Z,94702.94
2022-10-19T06:31:45.573Z,94695.38
2022-10-19T06:32:47.039Z,94703.94
2022-10-19T06:33:49.691Z,94704.34
2022-10-19T06:34:55.744Z,94709.06
2022-10-19T06:36:05.335Z,94697.75
2022-10-19T06:37:06.791Z,94702.06
2022-10-19T06:38:08.217Z,94701.13
2022-10-19T06:39:09.643Z,94696.44
2022-10-19T06:40:11.539Z,94701.16
2022-10-19T06:41:13.251Z,94702.84
2022-10-19T06:42:15.995Z,94703.28
2022-10-19T06:43:17.425Z,94697.84
2022-10-19T06:44:18.963Z,94699.84
2022-10-19T06:45:20.392Z,94700.47
2022-10-19T06:46:23.440Z,94702.41
2022-10-19T06:47:24.960Z,94714.38
2022-10-19T06:48:26.401Z,94711.34
2022-10-19T06:49:28.142Z,94713.81
2022-10-19T06:50:29.568Z,94713.28
2022-10-19T06:51:32.227Z,94719.75
2022-10-19T06:52:34.237Z,94729.69
2022-10-19T06:53:36.786Z,94726.31
2022-10-19T06:54:38.211Z,94728.78
2022-10-19T06:55:39.618Z,94717.28
2022-10-19T06:56:41.105Z,94726.38
2022-10-19T06:57:43.981Z,94723.94
2022-10-19T06:58:45.584Z,94713.34
2022-10-19T06:59:49.048Z,94721.09
2022-10-19T07:00:56.505Z,94712.00
2022-10-19T07:01:57.950Z,94714.53
2022-10-19T07:02:59.413Z,94719.94
2022-10-19T07:04:00.891Z,94715.66
2022-10-19T07:05:06.893Z,94718.09
2022-10-19T07:06:10.275Z,94724.94
2022-10-19T07:07:11.806Z,94713.00
2022-10-19T07:08:13.332Z,94713.47
2022-10-19T07:09:14.823Z,94720.69
2022-10-19T07:10:16.629Z,94718.75
2022-10-19T07:11:20.748Z,94720.38
2022-10-19T07:12:22.196Z,94716.19
2022-10-19T07:13:25.719Z,94724.13
2022-10-19T07:14:27.137Z,94723.47
2022-10-19T07:15:28.584Z,94721.47
2022-10-19T07:16:30.044Z,94731.59
2022-10-19T07:17:31.765Z,94719.03
2022-10-19T07:18:34.707Z,94723.78
2022-10-19T07:19:36.183Z,94726.22
2022-10-19T07:20:37.886Z,94725.69
2022-10-19T07:21:39.325Z,94722.19
2022-10-19T07:22:40.730Z,94727.28
2022-10-19T07:23:43.508Z,94719.31
2022-10-19T07:24:45.502Z,94719.09
2022-10-19T07:25:46.924Z,94720.53
2022-10-19T07:26:48.369Z,94725.38
2022-10-19T07:27:49.821Z,94724.56
2022-10-19T07:28:53.531Z,94723.91
2022-10-19T07:29:54.960Z,94730.06
2022-10-19T07:30:56.636Z,94730.03
2022-10-19T07:31:58.070Z,94723.06
2022-10-19T07:32:59.492Z,94724.63
2022-10-19T07:34:03.033Z,94727.06
2022-10-19T07:35:05.517Z,94721.66
2022-10-19T07:36:09.141Z,94723.03
2022-10-19T07:37:10.626Z,94725.88
2022-10-19T07:38:12.112Z,94725.13
2022-10-19T07:39:16.917Z,94722.66
2022-10-19T07:40:18.368Z,94725.38
2022-10-19T07:41:21.834Z,94722.94
2022-10-19T07:42:23.291Z,94723.28
2022-10-19T07:43:24.751Z,94723.28
2022-10-19T07:44:28.842Z,94728.69
2022-10-19T07:45:30.480Z,94722.94
2022-10-19T07:46:32.503Z,94725.34
2022-10-19T07:47:34.825Z,94715.38
2022-10-19T07:48:36.720Z,94717.84
2022-10-19T07:49:38.188Z,94716.66
2022-10-19T07:50:39.640Z,94721.66
2022-10-19T07:51:41.154Z,94722.13
2022-10-19T07:52:42.979Z,94719.69
2022-10-19T07:53:44.752Z,94715.94
2022-10-19T07:54:46.199Z,94719.88
2022-10-19T07:55:47.613Z,94726.25
2022-10-19T07:56:49.059Z,94715.13
2022-10-19T07:57:50.527Z,94721.44
2022-10-19T07:58:53.476Z,94714.22
2022-10-19T07:59:56.315Z,94724.56
2022-10-19T08:01:00.232Z,94717.28
2022-10-19T08:02:01.711Z,94721.31
2022-10-19T08:04:58.909Z,94713.38
2022-10-19T08:05:46.154Z,94714.19
2022-10-19T08:06:47.624Z,94715.50
2022-10-19T08:07:49.067Z,94716.81
2022-10-19T08:08:51.347Z,94716.41
2022-10-19T08:09:54.118Z,94718.66
2022-10-19T08:10:56.627Z,94716.91
2022-10-19T08:11:58.149Z,94722.34
2022-10-19T08:12:59.567Z,94719.94
2022-10-19T08:14:01.507Z,94727.28
2022-10-19T08:15:05.162Z,94717.78
2022-10-19T08:16:23.091Z,94723.97
2022-10-19T08:17:24.538Z,94727.56
2022-10-19T08:18:26.368Z,94726.03
2022-10-19T08:19:27.847Z,94722.94
2022-10-19T08:20:29.329Z,94721.75
2022-10-19T08:21:31.151Z,94724.63
2022-10-19T08:22:33.052Z,94723.03
2022-10-19T08:23:34.737Z,94727.56
2022-10-19T08:24:36.189Z,94723.34
2022-10-19T08:25:37.654Z,94719.75
2022-10-19T08:26:39.872Z,94718.28
2022-10-19T08:27:41.600Z,94720.81
2022-10-19T08:28:43.109Z,94725.19
2022-10-19T08:29:44.560Z,94723.66
2022-10-19T08:30:47.349Z,94722.66
2022-10-19T08:31:49.635Z,94723.91
2022-10-19T08:32:51.204Z,94726.81
2022-10-19T08:33:52.638Z,94725.84
2022-10-19T08:34:54.101Z,94723.72
2022-10-19T08:35:55.515Z,94722.78
2022-10-19T08:36:56.969Z,94723.47
2022-10-19T08:37:58.868Z,94727.13
2022-10-19T08:39:00.276Z,94720.91
2022-10-19T08:40:01.721Z,94716.38
2022-10-19T08:41:18.385Z,94712.00
2022-10-19T08:42:28.303Z,94717.78
2022-10-19T08:43:35.766Z,94714.38
2022-10-19T08:45:14.031Z,94714.22
2022-10-19T08:46:24.630Z,94713.63
2022-10-19T08:47:51.998Z,94712.66
2022-10-19T08:48:53.454Z,94713.34
2022-10-19T08:49:55.290Z,94714.69
2022-10-19T08:50:58.984Z,94713.66
2022-10-19T08:52:04.431Z,94719.69
2022-10-19T08:53:08.215Z,94717.84
2022-10-19T08:54:16.805Z,94710.63
2022-10-19T08:55:27.537Z,94709.38
2022-10-19T08:56:49.990Z,94713.88
2022-10-19T08:58:00.143Z,94699.22
2022-10-19T08:59:10.464Z,94697.38
2022-10-19T09:00:20.791Z,94711.06
2022-10-19T09:01:37.534Z,94709.38
2022-10-19T09:02:56.713Z,94700.56
2022-10-19T09:04:03.532Z,94706.16
2022-10-19T09:05:13.420Z,94712.72
2022-10-19T09:06:23.135Z,94712.75
2022-10-19T09:07:28.927Z,94706.34
2022-10-19T09:08:30.575Z,94697.72
2022-10-19T09:09:34.006Z,94703.59
2022-10-19T09:10:38.674Z,94705.19
2022-10-19T09:11:44.623Z,94704.72
2022-10-19T09:12:53.850Z,94709.03
2022-10-19T09:14:05.376Z,94705.31
2022-10-19T09:15:12.744Z,94705.63
2022-10-19T09:16:17.304Z,94713.19
2022-10-19T09:17:20.391Z,94710.09
2022-10-19T09:18:25.507Z,94709.66
2022-10-19T09:19:28.377Z,94712.19
2022-10-19T09:20:38.187Z,94705.72
2022-10-19T09:21:47.606Z,94706.88
2022-10-19T09:22:57.974Z,94707.81
2022-10-19T09:24:05.396Z,94710.69
2022-10-19T09:25:14.119Z,94707.53
2022-10-19T09:26:17.864Z,94712.63
2022-10-19T09:27:22.529Z,94708.34
2022-10-19T09:28:43.377Z,94709.84
2022-10-19T09:29:50.804Z,94712.28
2022-10-19T09:30:55.815Z,94705.63
2022-10-19T09:32:00.367Z,94704.53
2022-10-19T09:33:03.412Z,94709.28
2022-10-19T09:34:08.595Z,94708.97
2022-10-19T09:35:22.662Z,94702.31
2022-10-19T09:36:49.436Z,94700.91
2022-10-19T09:37:51.384Z,94701.63
2022-10-19T09:38:52.945Z,94708.34
2022-10-19T09:39:56.007Z,94709.66
2022-10-19T09:40:57.730Z,94706.09
2022-10-19T09:42:04.643Z,94706.03
2022-10-19T09:43:07.218Z,94704.34
2022-10-19T09:44:08.703Z,94703.41
2022-10-19T09:45:19.719Z,94707.63
2022-10-19T09:46:30.808Z,94705.78
2022-10-19T09:47:35.228Z,94702.72
2022-10-19T09:48:47.494Z,94707.78
2022-10-19T09:49:49.107Z,94713.13
2022-10-19T09:50:55.564Z,94706.59
2022-10-19T09:51:56.990Z,94706.28
2022-10-19T09:53:02.627Z,94717.66
2022-10-19T09:54:04.090Z,94711.97
2022-10-19T09:55:07.156Z,94707.84
2022-10-19T09:56:16.775Z,94706.22
2022-10-19T09:57:21.030Z,94705.59
2022-10-19T09:58:27.990Z,94705.22
2022-10-19T09:59:36.406Z,94704.53
2022-10-19T10:00:39.744Z,94699.59
2022-10-19T10:01:43.532Z,94701.72
2022-10-19T10:02:50.079Z,94694.31
2022-10-19T10:03:55.851Z,94699.22
2022-10-19T10:05:05.094Z,94691.84
2022-10-19T10:06:08.312Z,94692.72
2022-10-19T10:07:16.073Z,94698.66
2022-10-19T10:08:20.600Z,94692.19
2022-10-19T10:09:25.716Z,94694.13
2022-10-19T10:10:30.640Z,94700.31
2022-10-19T10:11:35.559Z,94693.38
2022-10-19T10:12:39.671Z,94692.72
2022-10-19T10:13:43.889Z,94699.50
2022-10-19T10:14:45.481Z,94699.38
2022-10-19T10:15:49.381Z,94698.41
2022-10-19T10:16:55.193Z,94701.38
2022-10-19T10:17:58.104Z,94701.13
2022-10-19T10:19:04.844Z,94702.91
2022-10-19T10:20:20.299Z,94690.31
2022-10-19T10:21:25.754Z,94699.16
2022-10-19T10:22:31.121Z,94697.38
2022-10-19T10:23:34.034Z,94689.53
2022-10-19T10:24:35.481Z,94697.38
2022-10-19T10:25:37.061Z,94696.19
2022-10-19T10:26:39.948Z,94691.22
2022-10-19T10:27:41.414Z,94685.41
2022-10-19T10:28:47.728Z,94685.97
2022-10-19T10:31:04.379Z,94685.53
2022-10-19T10:32:11.951Z,94687.34
2022-10-19T10:33:27.105Z,94684.31
2022-10-19T10:34:51.976Z,94688.44
2022-10-19T10:36:01.059Z,94682.41
2022-10-19T10:37:05.596Z,94693.81
2022-10-19T10:38:12.527Z,94690.06
2022-10-19T10:39:17.291Z,94693.00
2022-10-19T10:40:23.790Z,94688.91
2022-10-19T10:41:28.513Z,94696.78
2022-10-19T10:42:34.915Z,94689.19
2022-10-19T10:43:48.836Z,94691.91
2022-10-19T10:44:53.123Z,94690.31
2022-10-19T10:45:59.377Z,94696.50
2022-10-19T10:47:02.343Z,94695.03
2022-10-19T10:48:17.443Z,94690.34
2022-10-19T10:49:22.458Z,94689.59
2022-10-19T10:50:32.098Z,94688.41
2022-10-19T10:51:38.733Z,94685.69
2022-10-19T10:52:40.495Z,94686.84
2022-10-19T10:53:43.047Z,94684.00
2022-10-19T10:54:58.700Z,94681.50
2022-10-19T10:56:00.215Z,94683.31
2022-10-19T10:57:11.561Z,94681.31
2022-10-19T10:58:17.162Z,94681.31
2022-10-19T10:59:26.344Z,94675.13
2022-10-19T11:00:29.515Z,94673.28
2022-10-19T11:01:36.450Z,94671.06
2022-10-19T11:02:44.315Z,94672.91
2022-10-19T11:03:51.081Z,94675.72
2022-10-19T11:04:59.184Z,94672.91
2022-10-19T11:06:02.102Z,94666.19
2022-10-19T11:07:16.923Z,94668.09
2022-10-19T11:08:25.051Z,94658.28
2022-10-19T11:09:31.183Z,94662.94
2022-10-19T11:10:36.985Z,94668.47
2022-10-19T11:11:44.532Z,94663.97
2022-10-19T11:12:50.768Z,94665.06
2022-10-19T11:13:56.683Z,94661.38
2022-10-19T11:15:04.321Z,94661.03
2022-10-19T11:16:12.635Z,94663.41
2022-10-19T11:17:18.718Z,94663.00
2022-10-19T11:18:24.878Z,94670.13
2022-10-19T11:19:31.888Z,94666.59
2022-10-19T11:20:35.668Z,94663.47
2022-10-19T11:21:46.187Z,94663.75
2022-10-19T11:22:54.814Z,94664.34
2022-10-19T11:24:09.329Z,94659.53
2022-10-19T11:25:32.286Z,94658.94
2022-10-19T11:26:52.154Z,94659.28
2022-10-19T11:28:03.892Z,94659.28
2022-10-19T11:29:23.523Z,94657.81
2022-10-19T11:30:26.198Z,94648.06
2022-10-19T11:31:38.658Z,94656.00
2022-10-19T11:32:49.723Z,94645.97
2022-10-19T11:34:00.074Z,94651.97
2022-10-19T11:35:25.165Z,94647.06
2022-10-19T11:36:42.476Z,94647.50
2022-10-19T11:38:18.244Z,94641.69
2022-10-19T11:39:41.013Z,94649.13
2022-10-19T11:41:16.493Z,94652.34
2022-10-19T11:42:23.775Z,94642.78
2022-10-19T11:43:33.584Z,94631.00
2022-10-19T11:44:47.386Z,94635.97
2022-10-19T11:45:55.651Z,94631.75
2022-10-19T11:47:17.980Z,94629.94
2022-10-19T11:48:44.107Z,94628.47
2022-10-19T11:49:57.185Z,94624.75
2022-10-19T11:51:17.361Z,94626.03
2022-10-19T11:52:32.768Z,94619.50
2022-10-19T11:53:46.452Z,94616.50
2022-10-19T11:55:01.997Z,94615.63
2022-10-19T11:56:10.300Z,94608.72
2022-10-19T11:57:16.393Z,94607.84
2022-10-19T11:58:35.042Z,94603.09
2022-10-19T11:59:49.667Z,94602.06
2022-10-19T12:00:58.898Z,94608.66
2022-10-19T12:02:10.497Z,94597.47
2022-10-19T12:03:47.725Z,94597.81
2022-10-19T12:04:54.299Z,94592.03
2022-10-19T12:06:05.391Z,94595.63
2022-10-19T12:07:20.984Z,94591.31
2022-10-19T12:08:41.667Z,94590.38
2022-10-19T12:09:50.859Z,94588.28
2022-10-19T12:11:01.452Z,94586.06
2022-10-19T12:12:18.636Z,94589.34
2022-10-19T12:13:27.176Z,94585.44
2022-10-19T12:14:33.823Z,94582.97
2022-10-19T12:15:39.588Z,94578.31
2022-10-19T12:16:45.681Z,94579.44
2022-10-19T12:17:51.622Z,94581.78
2022-10-19T12:18:58.945Z,94578.13
2022-10-19T12:20:03.528Z,94579.19
2022-10-19T12:21:11.533Z,94576.47
2022-10-19T12:22:18.277Z,94576.91
2022-10-19T12:23:28.745Z,94585.31
2022-10-19T12:24:32.569Z,94576.13
2022-10-19T12:25:38.668Z,94571.22
2022-10-19T12:26:40.837Z,94572.06
2022-10-19T12:27:42.903Z,94562.88
2022-10-19T12:28:50.514Z,94555.69
2022-10-19T12:29:53.045Z,94560.38
2022-10-19T12:30:55.494Z,94553.38
2022-10-19T12:31:59.541Z,94567.09
2022-10-19T12:33:14.389Z,94562.41
2022-10-19T12:34:26.185Z,94559.34
2022-10-19T12:35:55.352Z,94564.34
2022-10-19T12:37:02.874Z,94566.13
2022-10-19T12:38:10.839Z,94561.44
2022-10-19T12:39:22.768Z,94558.88
2022-10-19T12:40:32.849Z,94560.97
2022-10-19T12:41:44.216Z,94553.53
2022-10-19T12:42:49.421Z,94550.53
2022-10-19T12:44:11.598Z,94548.88
2022-10-19T12:45:25.980Z,94550.09
2022-10-19T12:46:37.316Z,94554.72
2022-10-19T12:47:38.574Z,94554.97